Time;durP1;ratioP1;P1;durP2;ratioP2;P2;SDS_P1;SDS_P2;PMS_P1;PMS_P2;Temp;Humidity;BMP_temperature;BMP_pressure;BME280_temperature;BME280_humidity;BME280_pressure;Samples;Min_cycle;Max_cycle;Signal;HPM_P1;HPM_P2
2022/10/28 00:02:07;;;;;;;7.03;3.70;;;;;;;;;;4983812;28;20200;-63
2022/10/28 00:04:36;;;;;;;9.68;3.90;;;;;;;;;;4974305;28;20777;-63
2022/10/28 00:07:03;;;;;;;6.97;3.17;;;;;;;;;;4976739;28;20211;-62
2022/10/28 00:09:31;;;;;;;10.63;3.28;;;;;;;;;;4977824;28;20334;-62
2022/10/28 00:11:59;;;;;;;12.52;4.05;;;;;;;;;;4968780;28;20195;-62
2022/10/28 00:14:26;;;;;;;7.50;3.63;;;;;;;;;;4972874;28;20369;-63
2022/10/28 00:16:54;;;;;;;10.38;3.70;;;;;;;;;;4970269;28;20342;-62
2022/10/28 00:19:21;;;;;;;11.10;3.50;;;;;;;;;;4966276;28;20269;-63
2022/10/28 00:21:48;;;;;;;12.00;3.80;;;;;;;;;;4981322;28;20199;-63
2022/10/28 00:24:16;;;;;;;12.48;3.63;;;;;;;;;;4971674;28;20298;-62
2022/10/28 00:26:44;;;;;;;8.57;3.83;;;;;;;;;;4986068;28;20694;-63
2022/10/28 00:29:16;;;;;;;6.28;3.33;;;;;;;;;;4966582;28;20259;-64
2022/10/28 00:31:44;;;;;;;5.88;3.42;;;;;;;;;;4967483;28;20212;-63
2022/10/28 00:34:12;;;;;;;9.90;3.10;;;;;;;;;;4984357;28;20211;-63
2022/10/28 00:36:41;;;;;;;6.82;3.40;;;;;;;;;;4976865;28;20285;-63
2022/10/28 00:39:19;;;;;;;5.25;2.97;;;;;;;;;;4971650;28;20437;-63
2022/10/28 00:41:48;;;;;;;9.40;3.72;;;;;;;;;;4970969;28;20204;-63
2022/10/28 00:44:34;;;;;;;8.98;3.08;;;;;;;;;;4966847;28;20215;-63
2022/10/28 00:47:03;;;;;;;8.60;3.42;;;;;;;;;;4975560;28;20219;-63
2022/10/28 00:49:32;;;;;;;8.23;3.65;;;;;;;;;;4988928;28;20274;-64
2022/10/28 00:52:00;;;;;;;5.15;3.20;;;;;;;;;;4967312;28;20214;-63
2022/10/28 00:54:28;;;;;;;9.55;3.55;;;;;;;;;;4975619;28;20323;-63
2022/10/28 00:56:56;;;;;;;9.52;3.72;;;;;;;;;;4965736;28;20319;-63
2022/10/28 00:59:35;;;;;;;6.57;3.65;;;;;;;;;;4949720;28;20228;-63
2022/10/28 01:02:04;;;;;;;5.65;3.85;;;;;;;;;;4970042;28;21167;-63
2022/10/28 01:04:32;;;;;;;7.35;3.78;;;;;;;;;;4973944;28;20210;-63
2022/10/28 01:07:01;;;;;;;6.15;3.92;;;;;;;;;;4969351;28;20306;-63
2022/10/28 01:09:28;;;;;;;8.23;3.92;;;;;;;;;;4971316;28;20757;-63
2022/10/28 01:12:14;;;;;;;5.72;3.67;;;;;;;;;;4969083;28;20690;-63
2022/10/28 01:15:06;;;;;;;7.35;3.58;;;;;;;;;;4972044;28;20502;-64
2022/10/28 01:17:40;;;;;;;9.93;3.60;;;;;;;;;;4964295;28;20331;-63
2022/10/28 01:20:26;;;;;;;10.68;3.50;;;;;;;;;;4983107;28;20227;-63
2022/10/28 01:23:03;;;;;;;10.65;3.83;;;;;;;;;;4987604;28;20278;-62
2022/10/28 01:25:51;;;;;;;10.07;3.30;;;;;;;;;;4986401;28;20306;-62
2022/10/28 01:28:28;;;;;;;10.05;3.28;;;;;;;;;;4985707;28;20204;-62
2022/10/28 01:31:14;;;;;;;7.47;3.47;;;;;;;;;;4981285;28;20313;-63
2022/10/28 01:33:45;;;;;;;7.25;3.60;;;;;;;;;;4991529;28;20576;-62
2022/10/28 01:36:35;;;;;;;6.63;3.40;;;;;;;;;;4981526;28;20227;-63
2022/10/28 01:39:02;;;;;;;10.07;3.53;;;;;;;;;;4987089;28;20242;-62
2022/10/28 01:41:39;;;;;;;6.90;3.00;;;;;;;;;;4984010;28;20206;-62
2022/10/28 01:44:09;;;;;;;4.72;2.70;;;;;;;;;;4976230;28;20290;-62
2022/10/28 01:46:42;;;;;;;7.10;3.20;;;;;;;;;;4984448;28;20219;-63
2022/10/28 01:49:17;;;;;;;8.38;3.53;;;;;;;;;;5004353;28;20233;-63
2022/10/28 01:51:46;;;;;;;5.07;2.90;;;;;;;;;;4982133;28;20299;-62
2022/10/28 01:54:17;;;;;;;5.03;2.95;;;;;;;;;;4983246;28;20208;-63
2022/10/28 01:56:46;;;;;;;7.22;2.70;;;;;;;;;;4998401;28;20224;-62
2022/10/28 01:59:18;;;;;;;5.22;2.95;;;;;;;;;;4998826;28;20351;-63
2022/10/28 02:01:46;;;;;;;7.90;2.75;;;;;;;;;;4983015;28;20334;-62
2022/10/28 02:04:14;;;;;;;9.25;3.35;;;;;;;;;;4988923;28;20662;-63
2022/10/28 02:06:42;;;;;;;4.97;2.67;;;;;;;;;;4975495;28;21016;-63
2022/10/28 02:09:28;;;;;;;6.38;3.30;;;;;;;;;;5004282;28;20301;-63
2022/10/28 02:12:13;;;;;;;7.03;2.90;;;;;;;;;;4987576;28;20303;-63
2022/10/28 02:14:45;;;;;;;7.25;3.20;;;;;;;;;;4996016;28;20196;-63
2022/10/28 02:17:22;;;;;;;5.88;2.58;;;;;;;;;;4986442;28;20248;-62
2022/10/28 02:19:58;;;;;;;6.22;2.67;;;;;;;;;;4984628;28;20219;-63
2022/10/28 02:22:40;;;;;;;6.70;2.35;;;;;;;;;;5002469;28;20200;-63
2022/10/28 02:25:20;;;;;;;10.18;2.80;;;;;;;;;;4987487;28;20295;-63
2022/10/28 02:27:50;;;;;;;9.05;2.90;;;;;;;;;;4992946;28;20207;-63
2022/10/28 02:30:48;;;;;;;7.75;2.83;;;;;;;;;;4990887;28;20310;-64
2022/10/28 02:33:20;;;;;;;6.30;2.78;;;;;;;;;;4967476;28;20239;-62
2022/10/28 02:35:54;;;;;;;4.68;2.15;;;;;;;;;;4988718;28;20219;-63
2022/10/28 02:38:28;;;;;;;5.70;2.60;;;;;;;;;;4996880;28;20696;-63
2022/10/28 02:40:58;;;;;;;6.18;2.83;;;;;;;;;;4990746;28;20358;-63
2022/10/28 02:43:27;;;;;;;5.78;2.13;;;;;;;;;;5003618;28;20283;-62
2022/10/28 02:45:57;;;;;;;5.70;2.38;;;;;;;;;;5003878;28;20753;-61
2022/10/28 02:48:33;;;;;;;5.10;2.42;;;;;;;;;;4980567;28;20261;-63
2022/10/28 02:51:19;;;;;;;5.55;2.20;;;;;;;;;;4975391;28;20210;-63
2022/10/28 02:53:54;;;;;;;10.07;2.42;;;;;;;;;;4972739;28;20303;-63
2022/10/28 02:56:22;;;;;;;3.53;2.30;;;;;;;;;;4974430;28;20365;-63
2022/10/28 02:58:49;;;;;;;11.13;2.65;;;;;;;;;;4974237;28;20737;-63
2022/10/28 03:01:17;;;;;;;6.43;2.47;;;;;;;;;;4975360;28;20232;-62
2022/10/28 03:03:44;;;;;;;6.15;2.38;;;;;;;;;;4974888;28;20208;-63
2022/10/28 03:06:12;;;;;;;5.32;2.20;;;;;;;;;;4975216;28;20662;-63
2022/10/28 03:08:39;;;;;;;5.30;2.83;;;;;;;;;;4976281;28;20230;-63
2022/10/28 03:11:07;;;;;;;5.78;2.45;;;;;;;;;;4971765;28;20298;-62
2022/10/28 03:13:35;;;;;;;4.88;2.50;;;;;;;;;;4975293;28;20266;-63
2022/10/28 03:16:02;;;;;;;8.13;2.10;;;;;;;;;;4969930;28;20332;-63
2022/10/28 03:18:30;;;;;;;4.57;2.25;;;;;;;;;;4973864;28;20227;-63
2022/10/28 03:20:57;;;;;;;4.47;2.17;;;;;;;;;;4976047;28;20800;-64
2022/10/28 03:23:25;;;;;;;8.18;2.20;;;;;;;;;;4974581;28;20208;-62
2022/10/28 03:25:52;;;;;;;7.82;2.80;;;;;;;;;;4974596;28;20306;-63
2022/10/28 03:28:20;;;;;;;5.00;2.30;;;;;;;;;;4970504;28;20685;-64
2022/10/28 03:30:47;;;;;;;6.88;2.40;;;;;;;;;;4986984;28;20290;-63
2022/10/28 03:33:14;;;;;;;6.95;2.50;;;;;;;;;;4990311;28;20207;-63
2022/10/28 03:35:42;;;;;;;5.60;3.00;;;;;;;;;;4987252;28;20266;-63
2022/10/28 03:38:09;;;;;;;7.28;2.58;;;;;;;;;;4980200;28;20207;-62
2022/10/28 03:40:37;;;;;;;7.32;2.15;;;;;;;;;;4984883;28;20211;-63
2022/10/28 03:43:04;;;;;;;4.55;2.40;;;;;;;;;;5003173;28;20806;-63
2022/10/28 03:45:31;;;;;;;5.43;1.90;;;;;;;;;;4986515;28;20296;-64
2022/10/28 03:47:58;;;;;;;5.38;2.08;;;;;;;;;;4990011;28;20543;-63
2022/10/28 03:50:26;;;;;;;4.05;2.08;;;;;;;;;;4990017;28;20362;-63
2022/10/28 03:52:53;;;;;;;5.93;2.60;;;;;;;;;;4987534;28;20203;-63
2022/10/28 03:55:22;;;;;;;9.00;2.10;;;;;;;;;;4985616;28;20203;-63
2022/10/28 03:57:49;;;;;;;5.75;2.38;;;;;;;;;;4984896;28;20228;-63
2022/10/28 04:00:18;;;;;;;6.20;2.40;;;;;;;;;;5006740;28;20231;-63
2022/10/28 04:02:49;;;;;;;6.18;2.20;;;;;;;;;;4984110;28;20621;-64
2022/10/28 04:05:18;;;;;;;5.95;2.30;;;;;;;;;;4981138;28;20211;-63
2022/10/28 04:07:45;;;;;;;4.90;2.08;;;;;;;;;;4986862;28;20265;-63
2022/10/28 04:10:14;;;;;;;5.20;2.17;;;;;;;;;;4984845;28;20226;-64
2022/10/28 04:12:42;;;;;;;3.90;2.13;;;;;;;;;;4987611;28;20218;-63
2022/10/28 04:15:09;;;;;;;3.42;1.88;;;;;;;;;;5003204;28;20234;-63
2022/10/28 04:17:36;;;;;;;6.18;2.72;;;;;;;;;;5006498;28;20512;-63
2022/10/28 04:20:04;;;;;;;7.50;2.30;;;;;;;;;;5002363;28;20223;-64
2022/10/28 04:22:31;;;;;;;7.38;2.47;;;;;;;;;;4991939;28;20338;-63
2022/10/28 04:24:59;;;;;;;8.82;2.63;;;;;;;;;;4985694;28;20196;-61
2022/10/28 04:27:26;;;;;;;4.82;2.20;;;;;;;;;;4972836;28;20515;-62
2022/10/28 04:29:53;;;;;;;6.20;2.60;;;;;;;;;;4978181;28;20713;-64
2022/10/28 04:32:20;;;;;;;4.38;2.35;;;;;;;;;;4981035;28;20725;-63
2022/10/28 04:34:48;;;;;;;6.97;2.80;;;;;;;;;;5003733;28;20262;-62
2022/10/28 04:37:15;;;;;;;3.20;2.22;;;;;;;;;;4985587;28;20311;-62
2022/10/28 04:39:46;;;;;;;7.57;2.30;;;;;;;;;;4984804;28;20223;-62
2022/10/28 04:42:14;;;;;;;5.80;2.20;;;;;;;;;;4986124;28;20294;-63
2022/10/28 04:44:41;;;;;;;7.38;2.10;;;;;;;;;;4990066;28;20206;-63
2022/10/28 04:47:09;;;;;;;4.05;2.28;;;;;;;;;;4985439;28;20295;-63
2022/10/28 04:49:36;;;;;;;8.23;2.30;;;;;;;;;;4994555;28;20258;-63
2022/10/28 04:52:05;;;;;;;4.88;2.47;;;;;;;;;;4974317;28;20580;-63
2022/10/28 04:54:34;;;;;;;4.18;2.30;;;;;;;;;;4969778;28;20227;-63
2022/10/28 04:57:01;;;;;;;5.07;2.42;;;;;;;;;;4972994;28;20739;-63
2022/10/28 04:59:29;;;;;;;4.68;2.00;;;;;;;;;;4981298;28;20234;-63
2022/10/28 05:01:56;;;;;;;5.55;2.30;;;;;;;;;;4969266;28;20298;-63
2022/10/28 05:04:25;;;;;;;4.03;2.20;;;;;;;;;;4996183;28;20211;-63
2022/10/28 05:06:52;;;;;;;4.45;2.30;;;;;;;;;;4979762;28;20215;-63
2022/10/28 05:09:23;;;;;;;5.45;2.10;;;;;;;;;;4969878;28;20227;-62
2022/10/28 05:11:50;;;;;;;5.18;2.00;;;;;;;;;;4972381;28;20218;-63
2022/10/28 05:14:18;;;;;;;4.93;2.00;;;;;;;;;;4968895;28;20658;-63
2022/10/28 05:16:45;;;;;;;6.47;2.10;;;;;;;;;;4967869;28;20721;-64
2022/10/28 05:19:13;;;;;;;4.75;1.95;;;;;;;;;;4969128;28;21811;-63
2022/10/28 05:21:40;;;;;;;7.80;1.85;;;;;;;;;;4968490;28;20278;-63
2022/10/28 05:24:08;;;;;;;6.43;1.80;;;;;;;;;;4969447;28;20204;-62
2022/10/28 05:26:35;;;;;;;3.80;1.75;;;;;;;;;;4970623;28;20218;-63
2022/10/28 05:29:02;;;;;;;4.80;2.13;;;;;;;;;;4968273;28;21338;-62
2022/10/28 05:31:29;;;;;;;5.15;1.80;;;;;;;;;;4992286;28;20294;-63
2022/10/28 05:33:57;;;;;;;5.60;1.80;;;;;;;;;;4988898;28;20242;-63
2022/10/28 05:36:24;;;;;;;4.35;2.10;;;;;;;;;;4981640;28;20615;-63
2022/10/28 05:38:52;;;;;;;3.35;1.70;;;;;;;;;;4981374;28;20228;-62
2022/10/28 05:41:19;;;;;;;5.13;1.88;;;;;;;;;;5004470;28;20208;-64
2022/10/28 05:43:50;;;;;;;6.47;2.03;;;;;;;;;;4999308;28;20208;-63
2022/10/28 05:46:17;;;;;;;3.80;1.85;;;;;;;;;;4982315;28;20654;-63
2022/10/28 05:48:45;;;;;;;3.67;2.08;;;;;;;;;;4986366;28;20824;-63
2022/10/28 05:51:12;;;;;;;3.60;1.92;;;;;;;;;;4985753;28;20306;-63
2022/10/28 05:53:41;;;;;;;7.25;2.33;;;;;;;;;;4980360;28;20295;-63
2022/10/28 05:56:11;;;;;;;2.05;1.77;;;;;;;;;;4970989;28;20216;-63
2022/10/28 05:58:38;;;;;;;7.15;1.90;;;;;;;;;;4975976;28;20228;-63
2022/10/28 06:01:06;;;;;;;4.72;1.88;;;;;;;;;;4983091;28;20215;-63
2022/10/28 06:03:34;;;;;;;6.50;1.83;;;;;;;;;;4983268;28;20203;-62
2022/10/28 06:06:02;;;;;;;3.05;1.73;;;;;;;;;;4983082;28;20243;-63
2022/10/28 06:08:29;;;;;;;4.07;1.60;;;;;;;;;;5006278;28;20211;-64
2022/10/28 06:10:56;;;;;;;4.13;1.98;;;;;;;;;;4980936;28;20291;-64
2022/10/28 06:13:24;;;;;;;4.50;1.77;;;;;;;;;;4976452;28;20200;-64
2022/10/28 06:15:55;;;;;;;4.75;1.85;;;;;;;;;;4974582;28;20289;-63
2022/10/28 06:18:23;;;;;;;6.18;2.42;;;;;;;;;;4974736;28;20255;-63
2022/10/28 06:20:51;;;;;;;6.38;1.70;;;;;;;;;;4974925;28;20212;-63
2022/10/28 06:23:19;;;;;;;3.90;1.73;;;;;;;;;;4973326;28;20204;-63
2022/10/28 06:25:46;;;;;;;8.48;3.55;;;;;;;;;;4976804;28;20205;-63
2022/10/28 06:28:14;;;;;;;4.43;2.00;;;;;;;;;;4977989;28;20207;-63
2022/10/28 06:30:41;;;;;;;4.25;2.05;;;;;;;;;;4970924;28;20904;-63
2022/10/28 06:33:08;;;;;;;5.30;1.73;;;;;;;;;;4989656;28;20211;-62
2022/10/28 06:35:36;;;;;;;6.93;1.90;;;;;;;;;;4980813;28;20213;-62
2022/10/28 06:38:03;;;;;;;6.00;1.92;;;;;;;;;;4975706;28;20318;-62
2022/10/28 06:40:37;;;;;;;3.90;1.77;;;;;;;;;;4980461;28;20219;-62
2022/10/28 06:43:06;;;;;;;5.95;1.70;;;;;;;;;;4981453;28;20299;-63
2022/10/28 06:45:34;;;;;;;7.60;1.95;;;;;;;;;;4979987;28;20211;-64
2022/10/28 06:48:03;;;;;;;7.45;1.95;;;;;;;;;;4976760;28;20216;-63
2022/10/28 06:50:30;;;;;;;5.28;1.85;;;;;;;;;;4972345;28;20231;-62
2022/10/28 06:52:58;;;;;;;5.97;1.77;;;;;;;;;;4978935;28;20203;-64
2022/10/28 06:55:25;;;;;;;8.82;1.75;;;;;;;;;;4979835;28;20766;-63
2022/10/28 06:57:53;;;;;;;3.67;1.73;;;;;;;;;;4979228;28;20219;-64
2022/10/28 07:00:21;;;;;;;5.75;1.80;;;;;;;;;;4986324;28;20232;-64
2022/10/28 07:02:52;;;;;;;4.60;2.10;;;;;;;;;;4991566;28;20302;-63
2022/10/28 07:05:21;;;;;;;5.55;1.60;;;;;;;;;;4995463;28;20208;-63
2022/10/28 07:07:49;;;;;;;5.93;2.05;;;;;;;;;;4974908;28;20548;-64
2022/10/28 07:10:16;;;;;;;4.38;1.98;;;;;;;;;;4977526;28;20775;-63
2022/10/28 07:12:44;;;;;;;3.30;1.98;;;;;;;;;;4973295;28;20207;-63
2022/10/28 07:15:11;;;;;;;3.88;2.05;;;;;;;;;;4977765;28;20303;-62
2022/10/28 07:17:39;;;;;;;4.00;1.80;;;;;;;;;;4977865;28;20235;-64
2022/10/28 07:20:07;;;;;;;9.05;2.10;;;;;;;;;;4988128;28;20302;-64
2022/10/28 07:22:34;;;;;;;2.42;1.85;;;;;;;;;;4989191;28;20238;-63
2022/10/28 07:25:02;;;;;;;4.45;1.60;;;;;;;;;;4984861;28;20208;-64
2022/10/28 07:27:29;;;;;;;5.35;1.75;;;;;;;;;;4988101;28;20246;-64
2022/10/28 07:29:56;;;;;;;6.07;2.25;;;;;;;;;;4987869;28;20327;-64
2022/10/28 07:32:23;;;;;;;5.93;2.47;;;;;;;;;;4984623;28;20302;-64
2022/10/28 07:34:51;;;;;;;8.55;2.10;;;;;;;;;;4982176;28;20302;-64
2022/10/28 07:37:18;;;;;;;6.15;1.60;;;;;;;;;;4985760;28;20313;-63
2022/10/28 07:39:45;;;;;;;3.42;1.80;;;;;;;;;;4975726;28;20649;-64
2022/10/28 07:42:13;;;;;;;4.97;1.52;;;;;;;;;;4975552;28;20327;-64
2022/10/28 07:44:40;;;;;;;4.18;1.70;;;;;;;;;;4981628;28;20298;-63
2022/10/28 07:47:08;;;;;;;5.47;2.45;;;;;;;;;;4978967;28;20222;-63
2022/10/28 07:49:35;;;;;;;4.20;1.98;;;;;;;;;;4980292;28;20239;-63
2022/10/28 07:52:02;;;;;;;3.38;1.67;;;;;;;;;;4983298;28;20222;-64
2022/10/28 07:54:30;;;;;;;4.93;1.73;;;;;;;;;;4978726;28;20732;-64
2022/10/28 07:56:58;;;;;;;4.93;1.88;;;;;;;;;;4979066;28;20706;-64
2022/10/28 07:59:25;;;;;;;4.28;1.77;;;;;;;;;;4987231;28;20224;-63
2022/10/28 08:01:53;;;;;;;5.20;1.92;;;;;;;;;;4986631;28;20199;-63
2022/10/28 08:04:20;;;;;;;5.80;1.70;;;;;;;;;;4992823;28;20596;-62
2022/10/28 08:06:51;;;;;;;4.13;1.70;;;;;;;;;;4975379;28;20742;-63
2022/10/28 08:09:18;;;;;;;2.85;1.73;;;;;;;;;;4973965;28;21004;-62
2022/10/28 08:11:45;;;;;;;5.90;2.10;;;;;;;;;;4970645;28;20287;-64
2022/10/28 08:14:13;;;;;;;5.88;1.88;;;;;;;;;;4975263;28;20245;-64
2022/10/28 08:16:40;;;;;;;8.50;2.17;;;;;;;;;;4975885;28;20302;-63
2022/10/28 08:19:07;;;;;;;3.55;1.90;;;;;;;;;;4967706;28;20588;-63
2022/10/28 08:21:35;;;;;;;8.50;1.90;;;;;;;;;;4976918;28;20491;-63
2022/10/28 08:24:02;;;;;;;5.00;1.80;;;;;;;;;;4978078;28;20211;-64
2022/10/28 08:26:29;;;;;;;4.72;1.98;;;;;;;;;;4970994;28;20195;-63
2022/10/28 08:29:00;;;;;;;5.30;1.90;;;;;;;;;;4974488;28;20292;-64
2022/10/28 08:31:27;;;;;;;4.95;1.75;;;;;;;;;;4973802;28;20682;-64
2022/10/28 08:33:55;;;;;;;3.75;1.90;;;;;;;;;;4975105;28;20234;-64
2022/10/28 08:36:22;;;;;;;6.20;1.90;;;;;;;;;;4973736;28;20583;-64
2022/10/28 08:38:50;;;;;;;4.60;1.73;;;;;;;;;;4971102;28;20239;-63
2022/10/28 08:41:36;;;;;;;6.35;1.90;;;;;;;;;;4965427;28;20218;-62
2022/10/28 08:44:22;;;;;;;2.35;1.85;;;;;;;;;;4970683;28;20302;-63
2022/10/28 08:46:50;;;;;;;4.68;1.88;;;;;;;;;;4971489;28;20254;-64
2022/10/28 08:49:19;;;;;;;5.75;1.95;;;;;;;;;;4979018;28;20322;-63
2022/10/28 08:51:56;;;;;;;7.93;2.10;;;;;;;;;;4971111;28;23253;-64
2022/10/28 08:54:45;;;;;;;7.00;1.90;;;;;;;;;;4997707;28;20218;-63
2022/10/28 08:57:16;;;;;;;6.18;2.20;;;;;;;;;;4974795;28;20959;-63
2022/10/28 08:59:44;;;;;;;6.85;2.05;;;;;;;;;;4998232;28;20226;-63
2022/10/28 09:02:12;;;;;;;6.22;1.98;;;;;;;;;;4972087;28;20288;-61
2022/10/28 09:04:43;;;;;;;7.35;2.45;;;;;;;;;;4978745;28;20203;-63
2022/10/28 09:07:21;;;;;;;6.25;2.10;;;;;;;;;;4972439;28;20636;-63
2022/10/28 09:09:49;;;;;;;4.85;1.90;;;;;;;;;;4987665;28;20227;-63
2022/10/28 09:12:22;;;;;;;6.70;2.22;;;;;;;;;;4971627;28;20291;-63
2022/10/28 09:14:59;;;;;;;5.55;1.92;;;;;;;;;;4988827;28;20208;-64
2022/10/28 09:17:53;;;;;;;3.97;1.77;;;;;;;;;;4978007;28;20310;-61
2022/10/28 09:20:27;;;;;;;4.55;1.80;;;;;;;;;;4986737;28;20742;-64
2022/10/28 09:22:59;;;;;;;5.07;2.08;;;;;;;;;;4987870;28;20649;-63
2022/10/28 09:25:38;;;;;;;4.90;2.05;;;;;;;;;;4984757;28;20290;-63
2022/10/28 09:28:25;;;;;;;7.00;1.90;;;;;;;;;;4988887;28;20203;-63
2022/10/28 09:30:52;;;;;;;5.28;1.73;;;;;;;;;;4986067;28;20583;-63
2022/10/28 09:33:35;;;;;;;2.92;1.60;;;;;;;;;;4988451;28;20254;-63
2022/10/28 09:36:03;;;;;;;6.05;1.75;;;;;;;;;;4981871;28;20250;-63
2022/10/28 09:38:32;;;;;;;6.32;2.08;;;;;;;;;;4984241;28;20314;-63
2022/10/28 09:41:04;;;;;;;7.75;2.13;;;;;;;;;;4978818;28;20211;-63
2022/10/28 09:43:31;;;;;;;7.22;2.20;;;;;;;;;;4986172;28;20473;-63
2022/10/28 09:46:01;;;;;;;5.05;2.10;;;;;;;;;;5000812;28;20224;-63
2022/10/28 09:48:40;;;;;;;4.65;2.05;;;;;;;;;;4986695;28;20214;-62
2022/10/28 09:51:15;;;;;;;4.82;2.03;;;;;;;;;;4985890;28;20306;-63
2022/10/28 09:53:56;;;;;;;9.02;2.38;;;;;;;;;;4987165;28;20218;-63
2022/10/28 09:56:23;;;;;;;7.93;1.90;;;;;;;;;;4976195;28;20299;-64
2022/10/28 09:58:52;;;;;;;7.78;2.20;;;;;;;;;;4975408;28;20325;-63
2022/10/28 10:01:19;;;;;;;5.40;1.92;;;;;;;;;;4987404;28;20210;-63
2022/10/28 10:03:48;;;;;;;5.63;2.30;;;;;;;;;;4985702;28;20222;-63
2022/10/28 10:06:19;;;;;;;3.30;1.55;;;;;;;;;;4987839;28;20283;-64
2022/10/28 10:08:47;;;;;;;5.15;1.75;;;;;;;;;;4982466;28;20301;-64
2022/10/28 10:11:30;;;;;;;6.88;1.83;;;;;;;;;;4971804;28;20278;-62
2022/10/28 10:14:00;;;;;;;4.97;1.80;;;;;;;;;;4971770;28;20209;-63
2022/10/28 10:16:38;;;;;;;5.38;2.10;;;;;;;;;;4965796;28;21837;-63
2022/10/28 10:19:08;;;;;;;4.90;2.00;;;;;;;;;;4980512;28;20227;-63
2022/10/28 10:21:55;;;;;;;7.57;2.20;;;;;;;;;;4967817;28;20207;-62
2022/10/28 10:24:22;;;;;;;5.95;1.80;;;;;;;;;;4969042;28;20225;-62
2022/10/28 10:26:53;;;;;;;6.72;1.95;;;;;;;;;;4970790;28;21017;-64
2022/10/28 10:29:22;;;;;;;6.60;1.90;;;;;;;;;;4983895;28;20650;-64
2022/10/28 10:32:03;;;;;;;5.35;2.10;;;;;;;;;;4985394;28;20297;-64
2022/10/28 10:34:30;;;;;;;4.75;1.83;;;;;;;;;;4971369;28;20211;-64
2022/10/28 10:36:57;;;;;;;6.18;1.80;;;;;;;;;;4986165;28;20679;-64
2022/10/28 10:39:33;;;;;;;4.18;1.60;;;;;;;;;;4972478;28;21418;-65
2022/10/28 10:42:00;;;;;;;10.25;2.33;;;;;;;;;;4969624;28;20356;-64
2022/10/28 10:44:33;;;;;;;4.63;2.15;;;;;;;;;;4968976;28;20383;-64
2022/10/28 10:47:01;;;;;;;3.38;2.00;;;;;;;;;;4964209;28;20330;-63
2022/10/28 10:49:33;;;;;;;6.18;2.33;;;;;;;;;;4966228;28;20235;-63
2022/10/28 10:52:09;;;;;;;6.20;2.42;;;;;;;;;;4984263;28;20238;-65
2022/10/28 10:54:37;;;;;;;4.32;2.30;;;;;;;;;;4974969;28;20222;-64
2022/10/28 10:57:06;;;;;;;4.90;2.00;;;;;;;;;;4968992;28;20227;-64
2022/10/28 10:59:36;;;;;;;4.60;2.00;;;;;;;;;;4969354;28;20235;-63
2022/10/28 11:02:04;;;;;;;5.47;2.03;;;;;;;;;;4987212;28;20322;-64
2022/10/28 11:04:35;;;;;;;6.50;2.53;;;;;;;;;;4965904;28;21779;-64
2022/10/28 11:07:02;;;;;;;5.30;1.85;;;;;;;;;;4965660;28;20245;-64
2022/10/28 11:09:33;;;;;;;2.97;1.88;;;;;;;;;;4974765;28;20806;-64
2022/10/28 11:12:00;;;;;;;4.30;2.03;;;;;;;;;;4990737;28;20306;-64
2022/10/28 11:14:31;;;;;;;5.72;1.80;;;;;;;;;;4974767;28;20299;-64
2022/10/28 11:17:00;;;;;;;8.88;2.15;;;;;;;;;;4965552;28;22302;-63
2022/10/28 11:19:34;;;;;;;8.43;2.08;;;;;;;;;;4972115;28;20247;-64
2022/10/28 11:22:08;;;;;;;5.82;2.28;;;;;;;;;;4978221;28;20238;-62
2022/10/28 11:24:54;;;;;;;7.13;2.10;;;;;;;;;;4984170;28;20303;-63
2022/10/28 11:27:40;;;;;;;5.30;1.92;;;;;;;;;;4981728;28;20658;-63
2022/10/28 11:30:11;;;;;;;5.10;2.30;;;;;;;;;;5001106;28;20257;-64
2022/10/28 11:32:52;;;;;;;4.82;1.98;;;;;;;;;;4984867;28;20684;-64
2022/10/28 11:35:34;;;;;;;6.47;1.95;;;;;;;;;;4989313;28;20203;-64
2022/10/28 11:38:22;;;;;;;7.53;2.50;;;;;;;;;;4982693;28;20338;-64
2022/10/28 11:41:01;;;;;;;5.50;2.13;;;;;;;;;;4978630;28;20290;-63
2022/10/28 11:43:33;;;;;;;6.63;2.55;;;;;;;;;;4975604;28;20221;-65
2022/10/28 11:46:04;;;;;;;6.05;1.85;;;;;;;;;;4998569;28;20262;-64
2022/10/28 11:48:37;;;;;;;6.82;2.20;;;;;;;;;;4977684;28;20680;-65
2022/10/28 11:51:05;;;;;;;6.95;2.05;;;;;;;;;;4982405;28;20382;-65
2022/10/28 11:53:44;;;;;;;7.45;2.70;;;;;;;;;;4997477;28;20208;-64
2022/10/28 11:56:11;;;;;;;6.05;2.55;;;;;;;;;;4982763;28;20215;-64
2022/10/28 11:58:39;;;;;;;8.65;2.90;;;;;;;;;;4981077;28;20235;-64
2022/10/28 12:01:22;;;;;;;6.30;2.33;;;;;;;;;;4973566;28;20708;-64
2022/10/28 12:03:53;;;;;;;8.27;2.33;;;;;;;;;;4982090;28;20207;-64
2022/10/28 12:06:39;;;;;;;3.13;1.80;;;;;;;;;;4982525;28;20250;-64
2022/10/28 12:09:09;;;;;;;6.57;2.17;;;;;;;;;;4982567;28;20293;-65
2022/10/28 12:11:57;;;;;;;5.22;2.00;;;;;;;;;;4983902;28;20653;-65
2022/10/28 12:14:35;;;;;;;7.55;2.10;;;;;;;;;;5000278;28;20298;-65
2022/10/28 12:17:26;;;;;;;7.47;2.13;;;;;;;;;;4991704;28;20211;-65
2022/10/28 12:19:58;;;;;;;7.70;2.00;;;;;;;;;;4980907;28;20660;-65
2022/10/28 12:22:29;;;;;;;5.03;2.20;;;;;;;;;;4980413;28;20218;-64
2022/10/28 12:24:59;;;;;;;6.13;2.00;;;;;;;;;;4982298;28;20207;-64
2022/10/28 12:27:28;;;;;;;7.07;2.17;;;;;;;;;;4974970;28;20605;-64
2022/10/28 12:30:01;;;;;;;8.52;2.45;;;;;;;;;;4982627;28;20231;-65
2022/10/28 12:32:33;;;;;;;7.45;2.10;;;;;;;;;;4987725;28;20799;-64
2022/10/28 12:35:03;;;;;;;4.72;1.90;;;;;;;;;;4990698;28;20204;-63
2022/10/28 12:37:39;;;;;;;4.18;1.90;;;;;;;;;;4984234;28;20678;-65
2022/10/28 12:40:13;;;;;;;8.65;2.17;;;;;;;;;;4978403;28;20771;-63
2022/10/28 12:42:55;;;;;;;3.83;1.95;;;;;;;;;;4985402;28;20302;-64
2022/10/28 12:45:23;;;;;;;5.85;2.45;;;;;;;;;;4987006;28;20234;-63
2022/10/28 12:48:03;;;;;;;6.43;2.10;;;;;;;;;;5000477;28;20294;-63
2022/10/28 12:50:33;;;;;;;6.50;2.05;;;;;;;;;;4986948;28;20314;-63
2022/10/28 12:53:01;;;;;;;8.77;2.10;;;;;;;;;;4985471;28;20812;-63
2022/10/28 12:55:28;;;;;;;4.63;2.17;;;;;;;;;;4994617;28;20298;-65
2022/10/28 12:58:15;;;;;;;5.82;1.92;;;;;;;;;;4989923;28;20413;-64
2022/10/28 13:00:44;;;;;;;8.27;1.90;;;;;;;;;;4973855;28;20298;-64
2022/10/28 13:03:13;;;;;;;3.28;1.80;;;;;;;;;;4975588;28;20248;-64
2022/10/28 13:05:43;;;;;;;7.93;2.15;;;;;;;;;;4989244;28;20235;-64
2022/10/28 13:08:31;;;;;;;5.95;2.15;;;;;;;;;;4992904;28;20203;-64
2022/10/28 13:11:21;;;;;;;10.38;2.22;;;;;;;;;;4963024;28;20210;-64
2022/10/28 13:14:09;;;;;;;6.55;2.13;;;;;;;;;;4982903;28;20219;-64
2022/10/28 13:16:37;;;;;;;4.75;2.20;;;;;;;;;;4948546;28;20362;-64
2022/10/28 13:19:14;;;;;;;8.80;2.40;;;;;;;;;;4971922;28;20374;-62
2022/10/28 13:21:53;;;;;;;4.82;1.98;;;;;;;;;;4978257;28;20208;-63
2022/10/28 13:24:28;;;;;;;6.20;2.20;;;;;;;;;;4976699;28;20316;-62
2022/10/28 13:26:56;;;;;;;6.35;2.00;;;;;;;;;;4973675;28;20626;-64
2022/10/28 13:29:25;;;;;;;7.30;2.70;;;;;;;;;;4965716;28;20223;-65
2022/10/28 13:31:53;;;;;;;3.92;1.90;;;;;;;;;;4986940;28;20318;-64
2022/10/28 13:34:22;;;;;;;5.78;1.98;;;;;;;;;;4983992;28;20216;-65
2022/10/28 13:37:00;;;;;;;5.65;2.47;;;;;;;;;;4986024;28;20227;-64
2022/10/28 13:39:30;;;;;;;4.55;2.10;;;;;;;;;;4995573;28;20304;-62
2022/10/28 13:42:09;;;;;;;7.75;2.45;;;;;;;;;;4983257;28;20231;-61
2022/10/28 13:44:48;;;;;;;6.32;2.00;;;;;;;;;;5000882;28;20234;-64
2022/10/28 13:47:21;;;;;;;6.00;2.08;;;;;;;;;;4985954;28;20235;-64
2022/10/28 13:50:07;;;;;;;9.82;2.28;;;;;;;;;;4962534;28;21127;-64
2022/10/28 13:52:38;;;;;;;5.88;2.20;;;;;;;;;;4980365;28;20223;-61
2022/10/28 13:55:21;;;;;;;6.10;2.00;;;;;;;;;;4967135;28;20303;-63
2022/10/28 13:57:49;;;;;;;6.88;2.28;;;;;;;;;;4963776;28;20739;-62
2022/10/28 14:00:17;;;;;;;7.43;1.95;;;;;;;;;;4987810;28;20238;-65
2022/10/28 14:02:49;;;;;;;7.07;2.38;;;;;;;;;;4979412;28;20207;-63
2022/10/28 14:05:18;;;;;;;5.65;2.42;;;;;;;;;;4977351;28;20278;-62
2022/10/28 14:07:56;;;;;;;5.88;2.47;;;;;;;;;;5002049;28;20254;-64
2022/10/28 14:10:24;;;;;;;6.35;1.95;;;;;;;;;;4976148;28;20249;-61
2022/10/28 14:12:56;;;;;;;7.13;2.08;;;;;;;;;;4986144;28;20681;-64
2022/10/28 14:15:27;;;;;;;4.47;2.00;;;;;;;;;;4978806;28;20249;-63
2022/10/28 14:17:56;;;;;;;6.68;2.30;;;;;;;;;;4975494;28;20655;-64
2022/10/28 14:20:47;;;;;;;8.48;2.45;;;;;;;;;;4975240;28;21349;-63
2022/10/28 14:23:20;;;;;;;4.57;1.80;;;;;;;;;;4965315;28;20215;-62
2022/10/28 14:25:52;;;;;;;8.90;2.03;;;;;;;;;;4984935;28;20211;-63
2022/10/28 14:28:29;;;;;;;6.85;2.15;;;;;;;;;;4961477;28;20211;-63
2022/10/28 14:31:11;;;;;;;5.40;2.10;;;;;;;;;;4968490;28;20294;-64
2022/10/28 14:33:38;;;;;;;6.75;2.03;;;;;;;;;;4965089;28;20648;-64
2022/10/28 14:36:18;;;;;;;10.05;1.98;;;;;;;;;;4963519;28;20214;-62
2022/10/28 14:39:13;;;;;;;8.77;2.13;;;;;;;;;;4963665;28;20234;-63
2022/10/28 14:41:46;;;;;;;11.10;2.00;;;;;;;;;;4969767;28;20202;-64
2022/10/28 14:44:32;;;;;;;6.55;2.13;;;;;;;;;;4960075;28;21241;-63
2022/10/28 14:47:18;;;;;;;6.90;2.28;;;;;;;;;;4958527;28;20267;-63
2022/10/28 14:50:15;;;;;;;6.53;2.30;;;;;;;;;;4980763;28;20223;-63
2022/10/28 14:52:43;;;;;;;4.85;2.20;;;;;;;;;;4942010;28;20218;-62
2022/10/28 14:55:27;;;;;;;5.57;2.00;;;;;;;;;;4989482;28;20203;-62
2022/10/28 14:58:11;;;;;;;7.40;2.40;;;;;;;;;;4969492;28;20211;-63
2022/10/28 15:00:40;;;;;;;6.65;1.85;;;;;;;;;;4970094;28;20227;-63
2022/10/28 15:03:09;;;;;;;6.80;2.58;;;;;;;;;;4959874;28;20293;-63
2022/10/28 15:05:36;;;;;;;7.50;3.03;;;;;;;;;;4954801;28;20218;-62
2022/10/28 15:08:04;;;;;;;7.80;2.75;;;;;;;;;;4955597;28;20215;-63
2022/10/28 15:10:32;;;;;;;9.70;5.32;;;;;;;;;;4961502;28;20278;-62